sensor_id;sensor_type;location;lat;lon;timestamp;pressure;altitude;pressure_sealevel;temperature;humidity
2785;BME280;57944;48.722;9.316;2023-04-29T00:01:25;97745.94;;;11.11;100.00
2785;BME280;57944;48.722;9.316;2023-04-29T00:03:55;97738.91;;;11.00;100.00
2785;BME280;57944;48.722;9.316;2023-04-29T00:06:26;97744.81;;;10.93;100.00
2785;BME280;57944;48.722;9.316;2023-04-29T00:08:57;97736.16;;;10.94;100.00
2785;BME280;57944;48.722;9.316;2023-04-29T00:11:27;97737.13;;;11.07;100.00
2785;BME280;57944;48.722;9.316;2023-04-29T00:14:00;97734.16;;;11.10;100.00
2785;BME280;57944;48.722;9.316;2023-04-29T00:16:30;97733.34;;;11.16;100.00
2785;BME280;57944;48.722;9.316;2023-04-29T00:19:01;97737.31;;;11.12;100.00
2785;BME280;57944;48.722;9.316;2023-04-29T00:21:31;97731.03;;;11.08;100.00
2785;BME280;57944;48.722;9.316;2023-04-29T00:24:01;97732.63;;;11.02;100.00
2785;BME280;57944;48.722;9.316;2023-04-29T00:26:32;97730.50;;;10.92;100.00
2785;BME280;57944;48.722;9.316;2023-04-29T00:29:05;97737.75;;;10.82;100.00
2785;BME280;57944;48.722;9.316;2023-04-29T00:31:35;97736.00;;;10.69;100.00
2785;BME280;57944;48.722;9.316;2023-04-29T00:34:06;97733.66;;;10.74;100.00
2785;BME280;57944;48.722;9.316;2023-04-29T00:36:36;97734.63;;;10.67;100.00
2785;BME280;57944;48.722;9.316;2023-04-29T00:39:06;97732.69;;;10.56;100.00
2785;BME280;57944;48.722;9.316;2023-04-29T00:41:40;97727.38;;;10.64;100.00
2785;BME280;57944;48.722;9.316;2023-04-29T00:44:12;97725.25;;;10.67;100.00
2785;BME280;57944;48.722;9.316;2023-04-29T00:46:43;97738.97;;;10.73;100.00
2785;BME280;57944;48.722;9.316;2023-04-29T00:49:13;97730.16;;;10.62;100.00
2785;BME280;57944;48.722;9.316;2023-04-29T00:51:44;97732.69;;;10.56;100.00
2785;BME280;57944;48.722;9.316;2023-04-29T00:54:14;97739.34;;;10.63;100.00
2785;BME280;57944;48.722;9.316;2023-04-29T00:56:45;97746.00;;;10.78;100.00
2785;BME280;57944;48.722;9.316;2023-04-29T00:59:18;97746.00;;;10.71;100.00
2785;BME280;57944;48.722;9.316;2023-04-29T01:01:50;97750.53;;;10.56;100.00
2785;BME280;57944;48.722;9.316;2023-04-29T01:04:20;97758.00;;;10.50;100.00
2785;BME280;57944;48.722;9.316;2023-04-29T01:06:53;97755.41;;;10.31;100.00
2785;BME280;57944;48.722;9.316;2023-04-29T01:09:35;97750.31;;;10.17;100.00
2785;BME280;57944;48.722;9.316;2023-04-29T01:12:14;97754.59;;;10.17;100.00
2785;BME280;57944;48.722;9.316;2023-04-29T01:14:53;97754.59;;;10.10;100.00
2785;BME280;57944;48.722;9.316;2023-04-29T01:17:27;97750.06;;;10.05;100.00
2785;BME280;57944;48.722;9.316;2023-04-29T01:20:00;97742.84;;;9.96;100.00
2785;BME280;57944;48.722;9.316;2023-04-29T01:22:31;97757.13;;;9.97;100.00
2785;BME280;57944;48.722;9.316;2023-04-29T01:25:05;97753.78;;;9.96;100.00
2785;BME280;57944;48.722;9.316;2023-04-29T01:28:01;97746.38;;;9.95;100.00
2785;BME280;57944;48.722;9.316;2023-04-29T01:30:39;97750.06;;;9.92;100.00
2785;BME280;57944;48.722;9.316;2023-04-29T01:33:16;97748.31;;;9.93;100.00
2785;BME280;57944;48.722;9.316;2023-04-29T01:35:59;97754.56;;;9.90;100.00
2785;BME280;57944;48.722;9.316;2023-04-29T01:38:36;97757.72;;;9.92;100.00
2785;BME280;57944;48.722;9.316;2023-04-29T01:41:13;97759.28;;;9.93;100.00
2785;BME280;57944;48.722;9.316;2023-04-29T01:43:50;97758.91;;;10.03;100.00
2785;BME280;57944;48.722;9.316;2023-04-29T01:46:23;97760.25;;;10.05;100.00
2785;BME280;57944;48.722;9.316;2023-04-29T01:48:55;97753.41;;;9.99;100.00
2785;BME280;57944;48.722;9.316;2023-04-29T01:51:25;97753.78;;;9.96;100.00
2785;BME280;57944;48.722;9.316;2023-04-29T01:53:56;97750.25;;;9.84;100.00
2785;BME280;57944;48.722;9.316;2023-04-29T01:56:28;97760.44;;;9.84;100.00
2785;BME280;57944;48.722;9.316;2023-04-29T01:59:03;97747.06;;;9.69;100.00
2785;BME280;57944;48.722;9.316;2023-04-29T02:01:52;97741.97;;;9.62;100.00
2785;BME280;57944;48.722;9.316;2023-04-29T02:04:25;97755.09;;;9.66;100.00
2785;BME280;57944;48.722;9.316;2023-04-29T02:06:55;97741.19;;;9.61;100.00
2785;BME280;57944;48.722;9.316;2023-04-29T02:09:25;97751.75;;;9.58;100.00
2785;BME280;57944;48.722;9.316;2023-04-29T02:12:06;97748.06;;;9.68;100.00
2785;BME280;57944;48.722;9.316;2023-04-29T02:14:36;97743.56;;;9.70;100.00
2785;BME280;57944;48.722;9.316;2023-04-29T02:17:06;97749.41;;;9.63;100.00
2785;BME280;57944;48.722;9.316;2023-04-29T02:19:36;97753.94;;;9.75;100.00
2785;BME280;57944;48.722;9.316;2023-04-29T02:22:06;97753.09;;;9.61;100.00
2785;BME280;57944;48.722;9.316;2023-04-29T02:24:40;97754.09;;;9.53;100.00
2785;BME280;57944;48.722;9.316;2023-04-29T02:27:12;97748.38;;;9.51;100.00
2785;BME280;57944;48.722;9.316;2023-04-29T02:29:43;97748.16;;;9.46;100.00
2785;BME280;57944;48.722;9.316;2023-04-29T02:32:13;97752.72;;;9.57;100.00
2785;BME280;57944;48.722;9.316;2023-04-29T02:34:46;97755.00;;;10.07;100.00
2785;BME280;57944;48.722;9.316;2023-04-29T02:37:16;97757.34;;;10.09;100.00
2785;BME280;57944;48.722;9.316;2023-04-29T02:39:46;97749.13;;;10.06;100.00
2785;BME280;57944;48.722;9.316;2023-04-29T02:42:19;97756.69;;;9.80;100.00
2785;BME280;57944;48.722;9.316;2023-04-29T02:44:49;97762.34;;;9.69;100.00
2785;BME280;57944;48.722;9.316;2023-04-29T02:47:19;97759.97;;;9.60;100.00
2785;BME280;57944;48.722;9.316;2023-04-29T02:49:49;97765.81;;;9.54;100.00
2785;BME280;57944;48.722;9.316;2023-04-29T02:52:19;97752.53;;;9.59;100.00
2785;BME280;57944;48.722;9.316;2023-04-29T02:54:49;97753.09;;;9.54;100.00
2785;BME280;57944;48.722;9.316;2023-04-29T02:57:22;97765.81;;;9.54;100.00
2785;BME280;57944;48.722;9.316;2023-04-29T02:59:52;97757.19;;;9.49;100.00
2785;BME280;57944;48.722;9.316;2023-04-29T03:02:22;97763.03;;;9.43;100.00
2785;BME280;57944;48.722;9.316;2023-04-29T03:04:56;97764.19;;;9.40;100.00
2785;BME280;57944;48.722;9.316;2023-04-29T03:07:27;97762.41;;;9.34;100.00
2785;BME280;57944;48.722;9.316;2023-04-29T03:09:57;97756.75;;;9.38;100.00
2785;BME280;57944;48.722;9.316;2023-04-29T03:12:30;97762.19;;;9.29;100.00
2785;BME280;57944;48.722;9.316;2023-04-29T03:15:01;97765.66;;;9.21;100.00
2785;BME280;57944;48.722;9.316;2023-04-29T03:17:31;97765.88;;;9.20;100.00
2785;BME280;57944;48.722;9.316;2023-04-29T03:20:01;97764.34;;;9.25;100.00
2785;BME280;57944;48.722;9.316;2023-04-29T03:22:32;97766.28;;;9.30;100.00
2785;BME280;57944;48.722;9.316;2023-04-29T03:25:02;97762.56;;;9.26;100.00
2785;BME280;57944;48.722;9.316;2023-04-29T03:27:35;97763.38;;;9.33;100.00
2785;BME280;57944;48.722;9.316;2023-04-29T03:30:07;97758.34;;;9.46;100.00
2785;BME280;57944;48.722;9.316;2023-04-29T03:32:47;97764.53;;;9.30;100.00
2785;BME280;57944;48.722;9.316;2023-04-29T03:35:17;97762.13;;;9.15;100.00
2785;BME280;57944;48.722;9.316;2023-04-29T03:38:07;97756.94;;;9.02;100.00
2785;BME280;57944;48.722;9.316;2023-04-29T03:40:38;97762.84;;;9.03;100.00
2785;BME280;57944;48.722;9.316;2023-04-29T03:43:11;97753.22;;;8.98;100.00
2785;BME280;57944;48.722;9.316;2023-04-29T03:45:41;97751.16;;;9.08;100.00
2785;BME280;57944;48.722;9.316;2023-04-29T03:48:15;97749.19;;;9.10;100.00
2785;BME280;57944;48.722;9.316;2023-04-29T03:50:46;97749.19;;;9.10;100.00
2785;BME280;57944;48.722;9.316;2023-04-29T03:53:16;97743.53;;;9.08;100.00
2785;BME280;57944;48.722;9.316;2023-04-29T03:55:47;97749.47;;;8.94;100.00
2785;BME280;57944;48.722;9.316;2023-04-29T03:58:19;97749.72;;;8.99;100.00
2785;BME280;57944;48.722;9.316;2023-04-29T04:00:50;97751.50;;;9.05;100.00
2785;BME280;57944;48.722;9.316;2023-04-29T04:03:24;97755.41;;;9.01;100.00
2785;BME280;57944;48.722;9.316;2023-04-29T04:05:56;97752.59;;;8.89;100.00
2785;BME280;57944;48.722;9.316;2023-04-29T04:08:26;97759.78;;;8.86;100.00
2785;BME280;57944;48.722;9.316;2023-04-29T04:11:22;97754.50;;;8.81;100.00
2785;BME280;57944;48.722;9.316;2023-04-29T04:13:59;97755.22;;;8.75;100.00
2785;BME280;57944;48.722;9.316;2023-04-29T04:16:30;97766.97;;;8.76;100.00
2785;BME280;57944;48.722;9.316;2023-04-29T04:19:01;97763.69;;;8.82;100.00
2785;BME280;57944;48.722;9.316;2023-04-29T04:21:35;97773.16;;;8.94;100.00
2785;BME280;57944;48.722;9.316;2023-04-29T04:24:07;97770.19;;;8.91;100.00
2785;BME280;57944;48.722;9.316;2023-04-29T04:26:37;97769.94;;;8.86;100.00
2785;BME280;57944;48.722;9.316;2023-04-29T04:29:17;97777.56;;;8.86;100.00
2785;BME280;57944;48.722;9.316;2023-04-29T04:32:05;97787.59;;;8.94;100.00
2785;BME280;57944;48.722;9.316;2023-04-29T04:34:37;97790.59;;;9.04;100.00
2785;BME280;57944;48.722;9.316;2023-04-29T04:37:08;97792.53;;;9.02;100.00
2785;BME280;57944;48.722;9.316;2023-04-29T04:39:39;97796.06;;;9.36;100.00
2785;BME280;57944;48.722;9.316;2023-04-29T04:42:12;97795.94;;;9.51;100.00
2785;BME280;57944;48.722;9.316;2023-04-29T04:44:47;97806.88;;;9.45;100.00
2785;BME280;57944;48.722;9.316;2023-04-29T04:47:30;97807.59;;;9.38;100.00
2785;BME280;57944;48.722;9.316;2023-04-29T04:50:06;97800.19;;;9.37;100.00
2785;BME280;57944;48.722;9.316;2023-04-29T04:52:37;97805.13;;;9.45;100.00
2785;BME280;57944;48.722;9.316;2023-04-29T04:55:23;97805.38;;;9.63;100.00
2785;BME280;57944;48.722;9.316;2023-04-29T04:57:53;97810.53;;;9.77;100.00
2785;BME280;57944;48.722;9.316;2023-04-29T05:00:26;97816.91;;;10.21;100.00
2785;BME280;57944;48.722;9.316;2023-04-29T05:02:55;97822.69;;;10.76;100.00
2785;BME280;57944;48.722;9.316;2023-04-29T05:05:26;97820.88;;;11.23;100.00
2785;BME280;57944;48.722;9.316;2023-04-29T05:07:56;97825.47;;;11.53;100.00
2785;BME280;57944;48.722;9.316;2023-04-29T05:10:35;97834.19;;;11.97;100.00
2785;BME280;57944;48.722;9.316;2023-04-29T05:13:06;97837.50;;;12.04;100.00
2785;BME280;57944;48.722;9.316;2023-04-29T05:15:39;97844.00;;;11.35;100.00
2785;BME280;57944;48.722;9.316;2023-04-29T05:18:12;97844.63;;;10.97;100.00
2785;BME280;57944;48.722;9.316;2023-04-29T05:20:46;97852.06;;;11.05;100.00
2785;BME280;57944;48.722;9.316;2023-04-29T05:23:16;97854.03;;;10.96;100.00
2785;BME280;57944;48.722;9.316;2023-04-29T05:25:46;97854.41;;;11.13;100.00
2785;BME280;57944;48.722;9.316;2023-04-29T05:28:17;97860.13;;;11.15;100.00
2785;BME280;57944;48.722;9.316;2023-04-29T05:30:52;97862.44;;;11.30;100.00
2785;BME280;57944;48.722;9.316;2023-04-29T05:33:22;97869.88;;;11.38;100.00
2785;BME280;57944;48.722;9.316;2023-04-29T05:35:51;97875.34;;;11.55;100.00
2785;BME280;57944;48.722;9.316;2023-04-29T05:38:22;97873.31;;;11.77;100.00
2785;BME280;57944;48.722;9.316;2023-04-29T05:41:06;97877.22;;;11.87;100.00
2785;BME280;57944;48.722;9.316;2023-04-29T05:43:44;97872.50;;;11.97;100.00
2785;BME280;57944;48.722;9.316;2023-04-29T05:46:17;97879.09;;;12.18;100.00
2785;BME280;57944;48.722;9.316;2023-04-29T05:48:49;97887.16;;;12.15;100.00
2785;BME280;57944;48.722;9.316;2023-04-29T05:51:19;97890.66;;;12.20;100.00
2785;BME280;57944;48.722;9.316;2023-04-29T05:53:49;97892.59;;;12.25;100.00
2785;BME280;57944;48.722;9.316;2023-04-29T05:56:21;97903.88;;;12.49;100.00
2785;BME280;57944;48.722;9.316;2023-04-29T05:58:52;97906.19;;;12.57;100.00
2785;BME280;57944;48.722;9.316;2023-04-29T06:01:26;97908.25;;;12.73;100.00
2785;BME280;57944;48.722;9.316;2023-04-29T06:03:57;97916.72;;;12.67;100.00
2785;BME280;57944;48.722;9.316;2023-04-29T06:06:51;97914.84;;;12.88;100.00
2785;BME280;57944;48.722;9.316;2023-04-29T06:09:42;97920.69;;;12.63;100.00
2785;BME280;57944;48.722;9.316;2023-04-29T06:12:13;97920.22;;;13.05;100.00
2785;BME280;57944;48.722;9.316;2023-04-29T06:14:45;97927.50;;;14.25;100.00
2785;BME280;57944;48.722;9.316;2023-04-29T06:17:17;97928.09;;;15.34;100.00
2785;BME280;57944;48.722;9.316;2023-04-29T06:19:47;97944.13;;;16.41;100.00
2785;BME280;57944;48.722;9.316;2023-04-29T06:22:18;97937.38;;;15.59;100.00
2785;BME280;57944;48.722;9.316;2023-04-29T06:24:50;97940.16;;;15.46;100.00
2785;BME280;57944;48.722;9.316;2023-04-29T06:27:40;97943.72;;;14.97;100.00
2785;BME280;57944;48.722;9.316;2023-04-29T06:30:12;97951.09;;;16.00;100.00
2785;BME280;57944;48.722;9.316;2023-04-29T06:32:45;97951.34;;;16.84;100.00
2785;BME280;57944;48.722;9.316;2023-04-29T06:35:16;97958.53;;;17.33;100.00
2785;BME280;57944;48.722;9.316;2023-04-29T06:38:04;97964.38;;;17.11;100.00
2785;BME280;57944;48.722;9.316;2023-04-29T06:40:43;97963.28;;;16.33;100.00
2785;BME280;57944;48.722;9.316;2023-04-29T06:43:28;97963.84;;;15.95;100.00
2785;BME280;57944;48.722;9.316;2023-04-29T06:46:17;97962.50;;;15.45;100.00
2785;BME280;57944;48.722;9.316;2023-04-29T06:49:02;97961.50;;;15.23;100.00
2785;BME280;57944;48.722;9.316;2023-04-29T06:51:33;97962.84;;;14.71;100.00
2785;BME280;57944;48.722;9.316;2023-04-29T06:54:03;97962.78;;;14.60;100.00
2785;BME280;57944;48.722;9.316;2023-04-29T06:56:34;97967.03;;;14.36;100.00
2785;BME280;57944;48.722;9.316;2023-04-29T06:59:03;97964.22;;;14.37;100.00
2785;BME280;57944;48.722;9.316;2023-04-29T07:01:34;97973.22;;;14.28;100.00
2785;BME280;57944;48.722;9.316;2023-04-29T07:04:10;97965.78;;;14.57;100.00
2785;BME280;57944;48.722;9.316;2023-04-29T07:06:40;97975.66;;;14.71;100.00
2785;BME280;57944;48.722;9.316;2023-04-29T07:09:13;97979.31;;;14.94;100.00
2785;BME280;57944;48.722;9.316;2023-04-29T07:11:43;97977.66;;;15.23;100.00
2785;BME280;57944;48.722;9.316;2023-04-29T07:14:13;97977.13;;;15.56;100.00
2785;BME280;57944;48.722;9.316;2023-04-29T07:16:43;97981.47;;;16.03;100.00
2785;BME280;57944;48.722;9.316;2023-04-29T07:19:16;97987.41;;;16.72;100.00
2785;BME280;57944;48.722;9.316;2023-04-29T07:21:45;97985.56;;;16.16;100.00
2785;BME280;57944;48.722;9.316;2023-04-29T07:24:15;97992.22;;;15.76;100.00
2785;BME280;57944;48.722;9.316;2023-04-29T07:26:47;97992.78;;;15.55;100.00
2785;BME280;57944;48.722;9.316;2023-04-29T07:29:17;97996.59;;;14.98;100.00
2785;BME280;57944;48.722;9.316;2023-04-29T07:31:47;97992.19;;;14.75;100.00
2785;BME280;57944;48.722;9.316;2023-04-29T07:34:19;97997.00;;;14.53;100.00
2785;BME280;57944;48.722;9.316;2023-04-29T07:36:50;98002.56;;;14.32;100.00
2785;BME280;57944;48.722;9.316;2023-04-29T07:39:20;97999.44;;;14.30;100.00
2785;BME280;57944;48.722;9.316;2023-04-29T07:41:54;98003.84;;;14.23;100.00
2785;BME280;57944;48.722;9.316;2023-04-29T07:44:26;97999.34;;;14.37;100.00
2785;BME280;57944;48.722;9.316;2023-04-29T07:46:56;98001.69;;;14.57;100.00
2785;BME280;57944;48.722;9.316;2023-04-29T07:49:28;98001.78;;;15.22;100.00
2785;BME280;57944;48.722;9.316;2023-04-29T07:51:58;98007.41;;;15.66;100.00
2785;BME280;57944;48.722;9.316;2023-04-29T07:54:29;98007.41;;;16.13;100.00
2785;BME280;57944;48.722;9.316;2023-04-29T07:56:59;98011.78;;;16.82;100.00
2785;BME280;57944;48.722;9.316;2023-04-29T07:59:30;98008.78;;;17.86;100.00
2785;BME280;57944;48.722;9.316;2023-04-29T08:02:01;98016.25;;;17.88;100.00
2785;BME280;57944;48.722;9.316;2023-04-29T08:04:38;98017.53;;;17.51;100.00
2785;BME280;57944;48.722;9.316;2023-04-29T08:07:11;98023.75;;;17.22;100.00
2785;BME280;57944;48.722;9.316;2023-04-29T08:09:41;98016.38;;;17.25;100.00
2785;BME280;57944;48.722;9.316;2023-04-29T08:12:11;98027.03;;;17.00;100.00
2785;BME280;57944;48.722;9.316;2023-04-29T08:14:41;98023.94;;;17.49;100.00
2785;BME280;57944;48.722;9.316;2023-04-29T08:17:11;98029.34;;;16.85;100.00
2785;BME280;57944;48.722;9.316;2023-04-29T08:19:44;98029.25;;;16.80;100.00
2785;BME280;57944;48.722;9.316;2023-04-29T08:22:14;98019.69;;;16.51;100.00
2785;BME280;57944;48.722;9.316;2023-04-29T08:24:44;98030.59;;;16.70;100.00
2785;BME280;57944;48.722;9.316;2023-04-29T08:27:14;98028.75;;;16.94;100.00
2785;BME280;57944;48.722;9.316;2023-04-29T08:29:44;98028.47;;;16.39;100.00
2785;BME280;57944;48.722;9.316;2023-04-29T08:32:14;98028.16;;;16.23;100.00
2785;BME280;57944;48.722;9.316;2023-04-29T08:34:47;98033.97;;;16.30;100.00
2785;BME280;57944;48.722;9.316;2023-04-29T08:37:17;98040.81;;;16.77;100.00
2785;BME280;57944;48.722;9.316;2023-04-29T08:39:48;98038.53;;;16.81;100.00
2785;BME280;57944;48.722;9.316;2023-04-29T08:42:20;98041.72;;;17.00;100.00
2785;BME280;57944;48.722;9.316;2023-04-29T08:44:58;98038.00;;;17.58;100.00
2785;BME280;57944;48.722;9.316;2023-04-29T08:47:29;98029.16;;;17.54;100.00
2785;BME280;57944;48.722;9.316;2023-04-29T08:50:03;98029.31;;;17.81;100.00
2785;BME280;57944;48.722;9.316;2023-04-29T08:52:34;98029.25;;;18.37;95.70
2785;BME280;57944;48.722;9.316;2023-04-29T08:55:05;98029.75;;;19.10;92.15
2785;BME280;57944;48.722;9.316;2023-04-29T08:57:35;98027.66;;;19.07;93.24
2785;BME280;57944;48.722;9.316;2023-04-29T09:00:08;98029.13;;;18.97;89.51
2785;BME280;57944;48.722;9.316;2023-04-29T09:02:40;98030.84;;;19.19;81.16
2785;BME280;57944;48.722;9.316;2023-04-29T09:05:15;98031.06;;;19.45;86.25
2785;BME280;57944;48.722;9.316;2023-04-29T09:07:45;98033.47;;;18.70;84.14
2785;BME280;57944;48.722;9.316;2023-04-29T09:10:16;98030.44;;;18.29;88.45
2785;BME280;57944;48.722;9.316;2023-04-29T09:12:47;98036.72;;;17.27;100.00
2785;BME280;57944;48.722;9.316;2023-04-29T09:15:17;98037.34;;;16.60;100.00
2785;BME280;57944;48.722;9.316;2023-04-29T09:17:48;98036.47;;;15.78;100.00
2785;BME280;57944;48.722;9.316;2023-04-29T09:20:28;98036.19;;;15.21;100.00
2785;BME280;57944;48.722;9.316;2023-04-29T09:22:59;98037.72;;;14.80;100.00
2785;BME280;57944;48.722;9.316;2023-04-29T09:25:30;98039.03;;;14.52;100.00
2785;BME280;57944;48.722;9.316;2023-04-29T09:28:13;98028.19;;;14.99;100.00
2785;BME280;57944;48.722;9.316;2023-04-29T09:30:47;98039.22;;;15.00;100.00
2785;BME280;57944;48.722;9.316;2023-04-29T09:33:17;98044.75;;;15.69;100.00
2785;BME280;57944;48.722;9.316;2023-04-29T09:35:50;98050.75;;;16.21;100.00
2785;BME280;57944;48.722;9.316;2023-04-29T09:38:20;98042.22;;;17.30;100.00
2785;BME280;57944;48.722;9.316;2023-04-29T09:40:50;98043.91;;;17.92;99.63
2785;BME280;57944;48.722;9.316;2023-04-29T09:43:25;98045.63;;;18.03;96.27
2785;BME280;57944;48.722;9.316;2023-04-29T09:45:56;98055.03;;;17.42;100.00
2785;BME280;57944;48.722;9.316;2023-04-29T09:48:29;98056.56;;;17.77;98.91
2785;BME280;57944;48.722;9.316;2023-04-29T09:51:03;98054.25;;;18.14;95.35
2785;BME280;57944;48.722;9.316;2023-04-29T09:53:34;98048.78;;;18.11;91.71
2785;BME280;57944;48.722;9.316;2023-04-29T09:56:05;98050.88;;;18.58;89.69
2785;BME280;57944;48.722;9.316;2023-04-29T09:58:35;98056.94;;;19.17;85.13
2785;BME280;57944;48.722;9.316;2023-04-29T10:01:06;98058.28;;;17.88;90.70
2785;BME280;57944;48.722;9.316;2023-04-29T10:03:39;98049.59;;;18.33;92.76
2785;BME280;57944;48.722;9.316;2023-04-29T10:06:13;98051.88;;;18.51;88.21
2785;BME280;57944;48.722;9.316;2023-04-29T10:08:46;98060.19;;;19.08;79.80
2785;BME280;57944;48.722;9.316;2023-04-29T10:11:17;98062.31;;;21.73;65.30
2785;BME280;57944;48.722;9.316;2023-04-29T10:13:48;98049.28;;;22.03;58.96
2785;BME280;57944;48.722;9.316;2023-04-29T10:16:26;98049.06;;;20.87;64.36
2785;BME280;57944;48.722;9.316;2023-04-29T10:18:59;98061.81;;;21.35;65.54
2785;BME280;57944;48.722;9.316;2023-04-29T10:21:35;98056.09;;;21.12;63.18
2785;BME280;57944;48.722;9.316;2023-04-29T10:24:06;98063.38;;;21.72;59.16
2785;BME280;57944;48.722;9.316;2023-04-29T10:26:41;98053.34;;;22.40;55.88
2785;BME280;57944;48.722;9.316;2023-04-29T10:29:12;98050.94;;;21.53;56.05
2785;BME280;57944;48.722;9.316;2023-04-29T10:31:42;98042.59;;;20.90;60.99
2785;BME280;57944;48.722;9.316;2023-04-29T10:34:16;98042.63;;;21.31;60.39
2785;BME280;57944;48.722;9.316;2023-04-29T10:36:49;98037.06;;;22.19;53.62
2785;BME280;57944;48.722;9.316;2023-04-29T10:39:28;98039.72;;;20.71;53.61
2785;BME280;57944;48.722;9.316;2023-04-29T10:41:59;98029.31;;;20.61;54.10
2785;BME280;57944;48.722;9.316;2023-04-29T10:44:29;98029.41;;;21.63;51.43
2785;BME280;57944;48.722;9.316;2023-04-29T10:47:18;98035.59;;;21.77;52.48
2785;BME280;57944;48.722;9.316;2023-04-29T10:50:01;98026.44;;;21.95;51.52
2785;BME280;57944;48.722;9.316;2023-04-29T10:53:00;98037.34;;;22.02;49.95
2785;BME280;57944;48.722;9.316;2023-04-29T10:55:30;98019.84;;;22.39;49.36
2785;BME280;57944;48.722;9.316;2023-04-29T10:58:02;98027.09;;;21.51;50.38
2785;BME280;57944;48.722;9.316;2023-04-29T11:00:33;98023.31;;;20.40;55.25
2785;BME280;57944;48.722;9.316;2023-04-29T11:03:05;98025.16;;;19.54;60.82
2785;BME280;57944;48.722;9.316;2023-04-29T11:05:36;98034.16;;;20.37;57.34
2785;BME280;57944;48.722;9.316;2023-04-29T11:08:13;98026.28;;;20.06;57.16
2785;BME280;57944;48.722;9.316;2023-04-29T11:10:53;98022.00;;;18.83;60.27
2785;BME280;57944;48.722;9.316;2023-04-29T11:13:23;98023.66;;;18.45;63.40
2785;BME280;57944;48.722;9.316;2023-04-29T11:16:02;98016.22;;;18.97;62.68
2785;BME280;57944;48.722;9.316;2023-04-29T11:18:33;98020.50;;;19.51;59.67
2785;BME280;57944;48.722;9.316;2023-04-29T11:21:21;98022.66;;;21.11;53.57
2785;BME280;57944;48.722;9.316;2023-04-29T11:23:54;98023.94;;;21.08;52.00
2785;BME280;57944;48.722;9.316;2023-04-29T11:26:24;98018.19;;;21.83;49.79
2785;BME280;57944;48.722;9.316;2023-04-29T11:28:55;98020.31;;;21.19;51.17
2785;BME280;57944;48.722;9.316;2023-04-29T11:31:26;98013.31;;;21.20;50.99
2785;BME280;57944;48.722;9.316;2023-04-29T11:33:58;98018.47;;;20.74;53.48
2785;BME280;57944;48.722;9.316;2023-04-29T11:36:30;98024.19;;;20.91;52.49
2785;BME280;57944;48.722;9.316;2023-04-29T11:39:03;98011.00;;;21.39;50.87
2785;BME280;57944;48.722;9.316;2023-04-29T11:41:34;98023.72;;;21.15;51.36
2785;BME280;57944;48.722;9.316;2023-04-29T11:44:04;98019.81;;;21.17;52.06
2785;BME280;57944;48.722;9.316;2023-04-29T11:46:36;98017.09;;;22.04;49.77
2785;BME280;57944;48.722;9.316;2023-04-29T11:49:06;98016.81;;;22.71;48.05
2785;BME280;57944;48.722;9.316;2023-04-29T11:51:35;98010.75;;;22.81;47.41
2785;BME280;57944;48.722;9.316;2023-04-29T11:54:08;98019.00;;;20.76;49.48
2785;BME280;57944;48.722;9.316;2023-04-29T11:56:38;98020.31;;;20.79;49.46
2785;BME280;57944;48.722;9.316;2023-04-29T11:59:08;98016.69;;;21.00;50.08
2785;BME280;57944;48.722;9.316;2023-04-29T12:01:38;98019.41;;;22.21;48.22
2785;BME280;57944;48.722;9.316;2023-04-29T12:04:08;98026.97;;;22.02;47.21
2785;BME280;57944;48.722;9.316;2023-04-29T12:06:39;98021.09;;;20.89;49.69
2785;BME280;57944;48.722;9.316;2023-04-29T12:09:12;98025.78;;;21.38;48.82
2785;BME280;57944;48.722;9.316;2023-04-29T12:11:43;98013.84;;;21.48;49.77
2785;BME280;57944;48.722;9.316;2023-04-29T12:14:13;98028.50;;;22.03;48.38
2785;BME280;57944;48.722;9.316;2023-04-29T12:16:43;98017.66;;;21.96;48.64
2785;BME280;57944;48.722;9.316;2023-04-29T12:19:13;98023.38;;;22.58;46.78
2785;BME280;57944;48.722;9.316;2023-04-29T12:21:47;98030.50;;;23.50;44.45
2785;BME280;57944;48.722;9.316;2023-04-29T12:24:22;98025.00;;;22.88;45.80
2785;BME280;57944;48.722;9.316;2023-04-29T12:26:53;98036.38;;;21.78;48.20
2785;BME280;57944;48.722;9.316;2023-04-29T12:29:25;98031.19;;;21.73;47.78
2785;BME280;57944;48.722;9.316;2023-04-29T12:31:55;98020.53;;;20.72;51.03
2785;BME280;57944;48.722;9.316;2023-04-29T12:34:27;98027.47;;;19.88;53.49
2785;BME280;57944;48.722;9.316;2023-04-29T12:36:58;98028.38;;;20.19;54.97
2785;BME280;57944;48.722;9.316;2023-04-29T12:39:31;98037.34;;;20.64;54.43
2785;BME280;57944;48.722;9.316;2023-04-29T12:42:01;98040.03;;;21.15;53.11
2785;BME280;57944;48.722;9.316;2023-04-29T12:44:34;98041.84;;;21.00;52.56
2785;BME280;57944;48.722;9.316;2023-04-29T12:47:08;98031.50;;;20.21;54.13
2785;BME280;57944;48.722;9.316;2023-04-29T12:49:40;98032.47;;;20.05;54.90
2785;BME280;57944;48.722;9.316;2023-04-29T12:52:10;98037.16;;;20.81;53.03
2785;BME280;57944;48.722;9.316;2023-04-29T12:54:43;98036.16;;;21.54;49.59
2785;BME280;57944;48.722;9.316;2023-04-29T12:57:13;98034.34;;;21.39;50.13
2785;BME280;57944;48.722;9.316;2023-04-29T12:59:44;98038.31;;;20.38;52.12
2785;BME280;57944;48.722;9.316;2023-04-29T13:02:14;98043.84;;;20.57;51.95
2785;BME280;57944;48.722;9.316;2023-04-29T13:04:44;98041.03;;;20.84;50.99
2785;BME280;57944;48.722;9.316;2023-04-29T13:07:14;98039.00;;;21.22;50.12
2785;BME280;57944;48.722;9.316;2023-04-29T13:09:47;98041.06;;;21.35;50.33
2785;BME280;57944;48.722;9.316;2023-04-29T13:12:17;98040.41;;;22.25;47.11
2785;BME280;57944;48.722;9.316;2023-04-29T13:14:47;98038.34;;;22.77;46.48
2785;BME280;57944;48.722;9.316;2023-04-29T13:17:18;98037.28;;;22.28;46.75
2785;BME280;57944;48.722;9.316;2023-04-29T13:19:49;98039.44;;;23.10;45.07
2785;BME280;57944;48.722;9.316;2023-04-29T13:22:20;98045.72;;;21.74;47.96
2785;BME280;57944;48.722;9.316;2023-04-29T13:24:52;98041.25;;;20.04;51.73
2785;BME280;57944;48.722;9.316;2023-04-29T13:27:23;98045.53;;;20.36;52.27
2785;BME280;57944;48.722;9.316;2023-04-29T13:29:53;98056.63;;;19.73;53.55
2785;BME280;57944;48.722;9.316;2023-04-29T13:32:22;98056.69;;;19.19;55.26
2785;BME280;57944;48.722;9.316;2023-04-29T13:35:08;98048.66;;;19.48;56.99
2785;BME280;57944;48.722;9.316;2023-04-29T13:37:39;98053.75;;;19.37;58.86